Time;durP1;ratioP1;P1;durP2;ratioP2;P2;SDS_P1;SDS_P2;PMS_P1;PMS_P2;Temp;Humidity;BMP_temperature;BMP_pressure;BME280_temperature;BME280_humidity;BME280_pressure;Samples;Min_cycle;Max_cycle;Signal;HPM_P1;HPM_P2
2021/08/30 00:00:09;;;;;;;2.17;1.98;;;;;;;12.58;100.00;92457.30;1788343;78;21134;-91
2021/08/30 00:02:36;;;;;;;3.85;2.35;;;;;;;12.57;100.00;92461.84;1775816;79;21015;-92
2021/08/30 00:05:05;;;;;;;2.40;2.20;;;;;;;12.57;100.00;92464.56;1779682;79;21059;-91
2021/08/30 00:07:32;;;;;;;2.00;1.80;;;;;;;12.57;100.00;92470.02;1778142;78;21349;-91
2021/08/30 00:10:00;;;;;;;2.37;2.08;;;;;;;12.57;100.00;92472.14;1832430;77;20990;-91
2021/08/30 00:12:27;;;;;;;1.90;1.80;;;;;;;12.58;100.00;92470.18;1818527;77;21040;-92
2021/08/30 00:14:55;;;;;;;1.77;1.67;;;;;;;12.60;100.00;92475.98;1823133;77;21050;-93
2021/08/30 00:17:23;;;;;;;5.22;3.80;;;;;;;12.62;100.00;92473.58;1819446;77;21046;-90
2021/08/30 00:19:51;;;;;;;5.60;4.35;;;;;;;12.63;100.00;92476.46;1828480;77;21028;-92
2021/08/30 00:22:19;;;;;;;7.53;3.00;;;;;;;12.65;100.00;92474.08;1765318;78;21139;-91
2021/08/30 00:24:47;;;;;;;2.08;1.90;;;;;;;12.66;100.00;92476.20;1799118;77;20999;-92
2021/08/30 00:27:15;;;;;;;2.40;2.20;;;;;;;12.66;100.00;92472.88;1795450;77;21018;-91
2021/08/30 00:29:43;;;;;;;6.70;2.60;;;;;;;12.68;100.00;92468.38;1788909;78;21033;-91
2021/08/30 00:32:11;;;;;;;2.58;2.37;;;;;;;12.69;100.00;92475.35;1781427;79;21022;-92
2021/08/30 00:34:38;;;;;;;3.05;2.83;;;;;;;12.71;100.00;92475.67;1725478;81;21068;-92
2021/08/30 00:37:06;;;;;;;4.40;2.70;;;;;;;12.72;100.00;92477.98;1766128;78;21077;-92
2021/08/30 00:39:34;;;;;;;2.80;2.50;;;;;;;12.72;100.00;92476.63;1766447;78;21046;-93
2021/08/30 00:42:00;;;;;;;2.80;2.50;;;;;;;12.74;100.00;92477.55;1801446;77;21609;-92
2021/08/30 00:44:28;;;;;;;5.45;1.80;;;;;;;12.67;100.00;92476.37;1782061;78;21041;-93
2021/08/30 00:46:56;;;;;;;2.87;1.70;;;;;;;12.59;100.00;92468.98;1798552;79;21723;-92
2021/08/30 00:49:23;;;;;;;2.15;1.77;;;;;;;12.54;100.00;92474.36;1795329;77;21118;-92
2021/08/30 00:51:51;;;;;;;2.65;1.75;;;;;;;12.49;100.00;92485.80;1793512;77;21569;-92
2021/08/30 00:54:18;;;;;;;1.47;1.37;;;;;;;12.48;100.00;92483.48;1810964;77;21213;-93
2021/08/30 00:56:46;;;;;;;2.25;1.17;;;;;;;12.49;100.00;92478.98;1830553;77;21033;-91
2021/08/30 00:59:13;;;;;;;1.40;1.10;;;;;;;12.46;100.00;92470.30;1753439;80;21109;-91
2021/08/30 01:01:41;;;;;;;1.32;1.22;;;;;;;12.46;100.00;92478.48;1748244;79;21151;-92
2021/08/30 01:04:08;;;;;;;1.77;1.67;;;;;;;12.48;100.00;92467.12;1816933;77;21044;-92
2021/08/30 01:06:46;;;;;;;2.33;1.67;;;;;;;12.48;100.00;92470.62;1818930;77;21025;-92
2021/08/30 01:09:41;;;;;;;1.70;1.60;;;;;;;12.50;100.00;92468.24;1818739;75;21022;-92
2021/08/30 01:12:23;;;;;;;3.97;2.63;;;;;;;12.54;100.00;92461.33;1822474;77;21749;-93
2021/08/30 01:15:03;;;;;;;2.55;1.98;;;;;;;12.52;100.00;92470.53;1793259;78;21500;-91
2021/08/30 01:17:34;;;;;;;2.10;1.27;;;;;;;12.51;100.00;92479.31;1828991;77;21042;-90
2021/08/30 01:20:16;;;;;;;1.30;1.20;;;;;;;12.53;100.00;92487.84;1757171;78;21068;-90
2021/08/30 01:22:43;;;;;;;1.35;1.25;;;;;;;12.49;100.00;92480.95;1819594;77;21537;-92
2021/08/30 01:25:12;;;;;;;1.30;0.72;;;;;;;12.45;100.00;92477.53;1776575;78;21056;-92
2021/08/30 01:27:41;;;;;;;1.17;1.05;;;;;;;12.42;100.00;92474.31;1814970;77;21122;-90
2021/08/30 01:30:16;;;;;;;2.17;0.90;;;;;;;12.40;100.00;92476.86;1821544;76;21030;-91
2021/08/30 01:32:48;;;;;;;0.90;0.90;;;;;;;12.39;100.00;92480.78;1814038;77;21030;-89
2021/08/30 01:35:19;;;;;;;2.10;1.10;;;;;;;12.40;100.00;92476.86;1817133;77;21074;-89
2021/08/30 01:37:49;;;;;;;1.82;1.07;;;;;;;12.40;100.00;92474.73;1796089;77;21696;-90
2021/08/30 01:40:18;;;;;;;2.52;2.33;;;;;;;12.40;100.00;92469.28;1816132;77;21290;-90
2021/08/30 01:42:47;;;;;;;2.25;1.12;;;;;;;12.42;100.00;92466.91;1813496;77;21050;-92
2021/08/30 01:45:16;;;;;;;1.27;1.17;;;;;;;12.42;100.00;92458.72;1811486;77;21061;-91
2021/08/30 01:47:48;;;;;;;1.05;1.02;;;;;;;12.41;100.00;92455.80;1813583;77;21477;-92
2021/08/30 01:50:20;;;;;;;;;;;;;;;12.40;100.00;92451.56;1777080;77;21121;-90
2021/08/30 01:52:47;;;;;;;5.45;2.25;;;;;;;12.37;100.00;92449.11;1804223;77;21019;-90
2021/08/30 01:56:05;;;;;;;2.10;1.90;;;;;;;12.35;100.00;92456.94;1825656;76;21371;-88
2021/08/30 02:00:46;;;;;;;2.22;2.00;;;;;;;12.33;100.00;92460.68;1743074;78;21041;-90
2021/08/30 02:03:27;;;;;;;1.67;1.57;;;;;;;12.33;100.00;92464.01;1747497;80;21056;-92
2021/08/30 02:08:30;;;;;;;3.30;1.80;;;;;;;12.33;100.00;92472.19;1767759;79;21865;-92
2021/08/30 02:11:03;;;;;;;2.80;2.33;;;;;;;12.34;100.00;92471.77;1737296;80;21173;-90
2021/08/30 02:13:30;;;;;;;4.10;2.70;;;;;;;12.35;100.00;92474.66;1763318;80;21026;-91
2021/08/30 02:16:00;;;;;;;1.42;1.32;;;;;;;12.37;100.00;92470.13;1803267;77;21516;-90
2021/08/30 02:18:46;;;;;;;0.75;0.75;;;;;;;12.38;100.00;92465.63;1804706;77;22372;-90
2021/08/30 02:21:34;;;;;;;0.45;0.45;;;;;;;12.37;100.00;92470.92;1770796;79;21106;-91
2021/08/30 02:24:08;;;;;;;0.20;0.20;;;;;;;12.34;100.00;92462.23;1765130;79;21077;-90
2021/08/30 02:26:47;;;;;;;0.20;0.20;;;;;;;12.34;100.00;92462.83;1766702;79;21072;-91
2021/08/30 02:29:17;;;;;;;0.37;0.20;;;;;;;12.34;100.00;92458.75;1782022;77;21085;-91
2021/08/30 02:31:48;;;;;;;0.10;0.10;;;;;;;12.32;100.00;92459.76;1796754;77;21134;-90
2021/08/30 02:34:18;;;;;;;0.10;0.10;;;;;;;12.30;100.00;92456.71;1798319;77;21507;-91
2021/08/30 02:36:44;;;;;;;0.20;0.20;;;;;;;12.30;100.00;92460.20;1770218;78;21054;-91
2021/08/30 02:39:12;;;;;;;0.30;0.30;;;;;;;12.29;100.00;92449.11;1755680;80;21026;-91
2021/08/30 02:41:40;;;;;;;1.37;0.30;;;;;;;12.29;100.00;92456.52;1768889;79;21157;-91
2021/08/30 02:44:06;;;;;;;0.78;0.20;;;;;;;12.27;100.00;92451.51;1798942;78;21282;-90
2021/08/30 02:46:33;;;;;;;0.30;0.30;;;;;;;12.25;100.00;92457.21;1761201;78;21035;-91
2021/08/30 02:48:59;;;;;;;0.40;0.40;;;;;;;12.23;100.00;92459.02;1745528;80;21666;-90
2021/08/30 02:51:26;;;;;;;1.17;0.10;;;;;;;12.22;100.00;92464.27;1727406;80;21102;-89
2021/08/30 02:53:53;;;;;;;1.37;0.85;;;;;;;12.22;100.00;92467.60;1749710;81;20999;-91
2021/08/30 02:56:19;;;;;;;1.62;1.40;;;;;;;12.22;100.00;92463.52;1753342;80;21078;-90
2021/08/30 02:58:45;;;;;;;0.50;0.50;;;;;;;12.22;100.00;92475.17;1778180;79;21047;-90
2021/08/30 03:01:12;;;;;;;0.60;0.50;;;;;;;12.21;100.00;92468.20;1757847;79;21098;-89
2021/08/30 03:03:38;;;;;;;0.30;0.30;;;;;;;12.22;100.00;92471.69;1757117;78;21077;-88
2021/08/30 03:06:05;;;;;;;0.50;0.40;;;;;;;12.23;100.00;92474.61;1805481;77;21556;-89
2021/08/30 03:08:32;;;;;;;0.55;0.55;;;;;;;12.24;100.00;92485.06;1805535;77;21110;-89
2021/08/30 03:10:58;;;;;;;0.85;0.30;;;;;;;12.24;100.00;92478.25;1805311;77;21011;-89
2021/08/30 03:13:25;;;;;;;0.40;0.20;;;;;;;12.23;100.00;92475.37;1798403;77;21015;-89
2021/08/30 03:15:52;;;;;;;0.55;0.40;;;;;;;12.21;100.00;92480.47;1786668;78;21127;-89
2021/08/30 03:18:18;;;;;;;0.93;0.28;;;;;;;12.17;100.00;92476.30;1814081;77;21003;-89
2021/08/30 03:20:45;;;;;;;1.25;0.20;;;;;;;12.14;100.00;92472.47;1815344;77;21797;-89
2021/08/30 03:23:11;;;;;;;0.20;0.20;;;;;;;12.09;100.00;92480.56;1822183;75;20955;-89
2021/08/30 03:25:38;;;;;;;1.62;0.20;;;;;;;12.04;100.00;92478.97;1767098;77;21119;-91
2021/08/30 03:28:07;;;;;;;1.72;0.30;;;;;;;11.99;100.00;92484.91;1747267;78;21311;-89
2021/08/30 03:30:34;;;;;;;0.40;0.20;;;;;;;11.94;100.00;92489.52;1767119;78;21109;-91
2021/08/30 03:33:01;;;;;;;2.37;0.30;;;;;;;11.90;100.00;92486.88;1816807;76;21056;-88
2021/08/30 03:35:29;;;;;;;0.20;0.20;;;;;;;11.87;100.00;92498.02;1798623;77;21078;-89
2021/08/30 03:37:57;;;;;;;0.80;0.40;;;;;;;11.82;100.00;92498.51;1818398;77;21037;-90
2021/08/30 03:40:23;;;;;;;0.20;0.20;;;;;;;11.80;100.00;92502.23;1796075;77;21030;-89
2021/08/30 03:42:49;;;;;;;0.20;0.20;;;;;;;11.80;100.00;92497.39;1793727;77;21157;-91
2021/08/30 03:45:16;;;;;;;0.40;0.40;;;;;;;11.78;100.00;92506.00;1828529;77;21148;-91
2021/08/30 03:47:42;;;;;;;1.50;0.30;;;;;;;11.76;100.00;92500.19;1836132;77;20998;-90
2021/08/30 03:50:10;;;;;;;0.20;0.20;;;;;;;11.73;100.00;92498.31;1812916;77;21274;-89
2021/08/30 03:52:38;;;;;;;0.50;0.40;;;;;;;11.74;100.00;92512.72;1831082;77;21552;-90
2021/08/30 03:55:07;;;;;;;0.65;0.50;;;;;;;11.72;100.00;92518.58;1817462;77;21017;-89
2021/08/30 03:57:35;;;;;;;0.60;0.60;;;;;;;11.70;100.00;92514.73;1824060;77;21116;-89
2021/08/30 04:00:04;;;;;;;0.55;0.55;;;;;;;11.67;100.00;92519.85;1830312;77;21156;-91
2021/08/30 04:02:31;;;;;;;0.47;0.47;;;;;;;11.65;100.00;92514.05;1815594;76;21076;-90
2021/08/30 04:04:59;;;;;;;0.53;0.53;;;;;;;11.63;100.00;92519.17;1815190;77;20842;-88
2021/08/30 04:07:25;;;;;;;1.75;0.85;;;;;;;11.62;100.00;92527.17;1810937;75;20974;-89
2021/08/30 04:09:52;;;;;;;0.70;0.70;;;;;;;11.63;100.00;92526.58;1815541;77;21922;-89
2021/08/30 04:12:20;;;;;;;0.90;0.50;;;;;;;11.58;100.00;92529.18;1813448;77;21082;-89
2021/08/30 04:14:47;;;;;;;0.37;0.30;;;;;;;11.59;100.00;92533.45;1819098;77;21019;-91
2021/08/30 04:17:14;;;;;;;1.05;0.95;;;;;;;11.60;100.00;92539.67;1814959;77;21093;-90
2021/08/30 04:19:42;;;;;;;0.82;0.80;;;;;;;11.61;100.00;92537.11;1790476;77;21045;-90
2021/08/30 04:22:08;;;;;;;1.92;1.35;;;;;;;11.60;100.00;92543.16;1764660;78;21236;-90
2021/08/30 04:24:34;;;;;;;1.20;0.60;;;;;;;11.62;100.00;92542.15;1791075;78;21010;-90
2021/08/30 04:27:01;;;;;;;0.40;0.40;;;;;;;11.64;100.00;92539.75;1787077;78;21149;-88
2021/08/30 04:29:30;;;;;;;18.07;8.55;;;;;;;11.66;100.00;92543.44;1770219;77;21050;-90
2021/08/30 04:31:58;;;;;;;9.93;4.10;;;;;;;11.68;100.00;92547.25;1775100;78;21128;-90
2021/08/30 04:34:24;;;;;;;3.77;2.30;;;;;;;11.72;100.00;92551.86;1804609;78;21133;-91
2021/08/30 04:36:51;;;;;;;6.47;3.37;;;;;;;11.75;100.00;92551.77;1796662;77;20981;-91
2021/08/30 04:39:17;;;;;;;3.77;3.25;;;;;;;11.77;100.00;92552.70;1770095;78;21299;-90
2021/08/30 04:41:47;;;;;;;2.37;2.17;;;;;;;11.78;100.00;92556.98;1770866;77;21054;-89
2021/08/30 04:44:13;;;;;;;3.17;2.77;;;;;;;11.93;100.00;92558.83;1799427;77;21544;-89
2021/08/30 04:46:40;;;;;;;3.50;3.10;;;;;;;12.22;100.00;92561.03;1789090;77;21101;-93
2021/08/30 04:49:07;;;;;;;3.37;3.08;;;;;;;12.48;100.00;92567.41;1797383;77;20998;-91
2021/08/30 04:51:34;;;;;;;2.15;1.98;;;;;;;12.57;100.00;92568.95;1776532;79;21048;-91
2021/08/30 04:54:01;;;;;;;2.75;1.72;;;;;;;12.58;100.00;92575.94;1710958;81;21063;-88
2021/08/30 04:56:28;;;;;;;2.00;1.90;;;;;;;12.54;100.00;92570.41;1780162;78;21580;-89
2021/08/30 04:58:54;;;;;;;22.40;9.55;;;;;;;12.47;100.00;92568.61;1767012;78;21924;-90
2021/08/30 05:01:21;;;;;;;9.35;3.92;;;;;;;12.38;100.00;92569.23;1765328;78;21108;-89
2021/08/30 05:03:48;;;;;;;4.25;2.50;;;;;;;12.34;100.00;92572.64;1746541;78;21037;-91
2021/08/30 05:06:14;;;;;;;3.25;2.27;;;;;;;12.34;100.00;92575.36;1740163;79;22133;-90
2021/08/30 05:08:41;;;;;;;2.98;2.45;;;;;;;12.34;100.00;92576.72;1781725;77;21077;-91
2021/08/30 05:11:07;;;;;;;4.47;3.17;;;;;;;12.34;100.00;92578.69;1780852;77;21185;-91
2021/08/30 05:13:34;;;;;;;2.35;1.55;;;;;;;12.32;100.00;92573.64;1759785;79;21035;-89
2021/08/30 05:16:01;;;;;;;1.90;1.80;;;;;;;12.30;100.00;92577.41;1803348;78;20975;-91
2021/08/30 05:18:27;;;;;;;1.72;1.10;;;;;;;12.30;100.00;92578.01;1787524;78;20995;-91
2021/08/30 05:20:55;;;;;;;3.90;1.77;;;;;;;12.29;100.00;92576.45;1774905;78;21109;-92
2021/08/30 05:23:21;;;;;;;2.00;1.20;;;;;;;12.27;100.00;92579.62;1790521;79;21116;-90
2021/08/30 05:25:49;;;;;;;2.42;1.20;;;;;;;12.26;100.00;92584.11;1787677;77;20980;-89
2021/08/30 05:28:16;;;;;;;0.98;0.98;;;;;;;12.25;100.00;92576.53;1789881;77;21104;-91
2021/08/30 05:30:44;;;;;;;4.00;1.60;;;;;;;12.29;100.00;92576.45;1810316;77;21041;-90
2021/08/30 05:33:11;;;;;;;1.67;1.30;;;;;;;12.34;100.00;92576.72;1810216;77;21401;-91
2021/08/30 05:35:37;;;;;;;1.17;1.02;;;;;;;12.56;100.00;92586.52;1815009;76;21105;-88
2021/08/30 05:38:03;;;;;;;2.22;0.90;;;;;;;12.89;100.00;92585.09;1817507;77;21061;-91
2021/08/30 05:40:30;;;;;;;0.93;0.93;;;;;;;13.12;100.00;92581.36;1827774;77;21205;-91
2021/08/30 05:42:56;;;;;;;1.37;0.95;;;;;;;13.22;99.69;92586.38;1815777;77;21038;-90
2021/08/30 05:45:23;;;;;;;1.07;0.90;;;;;;;13.26;98.66;92586.47;1809843;77;21053;-90
2021/08/30 05:47:50;;;;;;;1.72;1.62;;;;;;;13.36;100.00;92575.86;1814218;77;21137;-89
2021/08/30 05:50:16;;;;;;;2.27;1.72;;;;;;;13.52;93.90;92555.14;1818017;77;20955;-92
2021/08/30 05:52:43;;;;;;;3.40;1.32;;;;;;;13.69;92.12;92554.44;1814526;77;21046;-90
2021/08/30 05:55:13;;;;;;;;;;;;;;;;;;;;;
2021/08/30 05:57:41;;;;;;;1.50;1.35;;;;;;;13.98;92.45;92565.30;1813177;77;21136;-90
2021/08/30 06:00:10;;;;;;;2.58;1.20;;;;;;;14.13;91.18;92560.16;1786087;78;21114;-91
2021/08/30 06:02:36;;;;;;;1.10;1.10;;;;;;;14.16;90.62;92561.41;1815628;77;21022;-90
2021/08/30 06:11:24;;;;;;;1.00;1.00;;;;;;;14.37;90.96;92550.99;1785851;77;20971;-89
2021/08/30 06:13:54;;;;;;;1.30;1.20;;;;;;;14.55;89.64;92549.27;1767855;78;21580;-90
2021/08/30 06:16:20;;;;;;;1.55;1.45;;;;;;;14.55;89.07;92555.31;1767606;79;21066;-91
2021/08/30 06:18:48;;;;;;;2.22;2.02;;;;;;;14.56;89.51;92563.09;1778382;77;22191;-87
2021/08/30 06:21:14;;;;;;;2.45;1.45;;;;;;;14.60;89.45;92572.56;1809500;77;21432;-88
2021/08/30 06:23:40;;;;;;;1.82;1.72;;;;;;;14.57;88.81;92583.01;1723690;78;21054;-91
2021/08/30 06:26:07;;;;;;;1.67;1.57;;;;;;;14.50;87.41;92588.70;1768011;77;21105;-88
2021/08/30 06:28:33;;;;;;;1.80;1.70;;;;;;;14.42;86.29;92592.24;1780081;77;21717;-89
2021/08/30 06:31:00;;;;;;;2.20;1.80;;;;;;;14.34;85.33;92587.60;1765243;78;21309;-90
2021/08/30 06:33:28;;;;;;;4.40;2.27;;;;;;;14.21;81.91;92583.33;1748516;78;21065;-91
2021/08/30 06:35:55;;;;;;;2.50;2.10;;;;;;;14.21;84.35;92574.52;1778058;78;21087;-89
2021/08/30 06:38:21;;;;;;;2.25;1.90;;;;;;;14.46;85.55;92577.84;1783485;78;21611;-91
2021/08/30 06:40:47;;;;;;;2.22;2.10;;;;;;;14.74;80.93;92571.30;1792791;77;21033;-86
2021/08/30 06:43:15;;;;;;;1.75;1.65;;;;;;;14.88;81.17;92575.55;1779396;79;21107;-90
2021/08/30 06:45:46;;;;;;;2.08;1.87;;;;;;;14.90;77.85;92575.89;1777958;77;21066;-88
2021/08/30 06:48:14;;;;;;;2.33;2.17;;;;;;;14.83;78.74;92573.38;1786028;78;21159;-87
2021/08/30 06:50:42;;;;;;;3.17;1.82;;;;;;;14.84;81.36;92576.27;1767627;79;21135;-90
2021/08/30 06:53:12;;;;;;;2.08;1.90;;;;;;;14.97;83.52;92574.25;1778186;77;21043;-89
2021/08/30 06:55:39;;;;;;;2.37;2.08;;;;;;;15.15;81.27;92568.17;1761674;78;21041;-87
2021/08/30 06:58:13;;;;;;;2.22;2.02;;;;;;;15.33;78.64;92562.07;1772399;78;22203;-90
2021/08/30 07:00:42;;;;;;;2.12;1.90;;;;;;;15.50;80.59;92567.53;1721450;80;21445;-88
2021/08/30 07:03:08;;;;;;;1.80;1.70;;;;;;;15.66;78.20;92560.49;1786081;78;21151;-87
2021/08/30 07:05:37;;;;;;;1.87;1.62;;;;;;;15.76;76.75;92551.73;1795733;78;21453;-89
2021/08/30 07:08:04;;;;;;;2.20;2.10;;;;;;;15.75;73.48;92566.02;1800921;77;21132;-90
2021/08/30 07:10:31;;;;;;;2.30;2.17;;;;;;;15.66;71.93;92562.48;1804012;78;21053;-89
2021/08/30 07:12:57;;;;;;;2.20;2.00;;;;;;;15.55;73.90;92569.07;1800635;78;21079;-91
2021/08/30 07:15:25;;;;;;;2.33;1.80;;;;;;;15.52;74.44;92567.83;1769505;79;21062;-89
2021/08/30 07:17:53;;;;;;;2.87;2.67;;;;;;;15.51;74.83;92576.66;1764996;79;21104;-88
2021/08/30 07:20:19;;;;;;;2.22;2.12;;;;;;;15.49;74.03;92577.70;1799996;77;21064;-89
2021/08/30 07:22:46;;;;;;;2.92;2.65;;;;;;;15.43;73.67;92578.13;1757532;78;22064;-92
2021/08/30 07:32:14;;;;;;;2.22;2.02;;;;;;;15.46;73.94;92587.44;1763625;80;62945;-91
2021/08/30 07:34:44;;;;;;;2.27;2.08;;;;;;;15.52;73.90;92592.48;1807663;77;21060;-89
2021/08/30 07:37:11;;;;;;;3.05;2.02;;;;;;;15.51;71.53;92594.47;1755702;78;21053;-93
2021/08/30 07:39:39;;;;;;;3.47;2.10;;;;;;;15.50;72.21;92592.19;1779412;78;21033;-90
2021/08/30 07:42:07;;;;;;;4.12;1.75;;;;;;;15.50;70.83;92584.73;1770943;78;22407;-90
2021/08/30 07:44:33;;;;;;;2.22;2.02;;;;;;;15.53;72.13;92597.54;1761601;79;21089;-88
2021/08/30 07:47:02;;;;;;;2.22;1.95;;;;;;;15.58;71.45;92585.84;1717034;80;21061;-90
2021/08/30 07:49:29;;;;;;;1.77;1.67;;;;;;;15.52;70.81;92602.84;1768180;79;21583;-90
2021/08/30 07:51:58;;;;;;;2.42;2.22;;;;;;;15.44;69.55;92610.39;1746291;80;21163;-91
2021/08/30 07:54:25;;;;;;;1.70;1.60;;;;;;;15.39;70.72;92610.97;1737147;80;21073;-91
2021/08/30 07:56:51;;;;;;;3.67;2.20;;;;;;;15.31;71.77;92611.83;1745242;80;21041;-88
2021/08/30 07:59:18;;;;;;;1.98;1.80;;;;;;;15.26;72.03;92608.27;1764238;79;21121;-89
2021/08/30 08:01:46;;;;;;;2.40;2.20;;;;;;;15.22;71.06;92615.23;1758901;79;21588;-92
2021/08/30 08:04:13;;;;;;;1.95;1.85;;;;;;;15.23;72.68;92615.42;1793567;77;21076;-93
2021/08/30 08:06:40;;;;;;;1.77;1.65;;;;;;;15.20;72.43;92621.78;1804477;77;21765;-91
2021/08/30 08:09:06;;;;;;;2.55;2.33;;;;;;;15.14;71.88;92610.45;1805329;78;21045;-89
2021/08/30 08:11:33;;;;;;;1.90;1.80;;;;;;;15.13;73.28;92604.83;1821679;77;21057;-88
2021/08/30 08:14:00;;;;;;;2.37;1.77;;;;;;;15.18;71.81;92605.02;1783339;78;21409;-90
2021/08/30 08:16:31;;;;;;;1.70;1.60;;;;;;;15.23;72.03;92595.46;1759186;76;21024;-91
2021/08/30 08:18:57;;;;;;;1.50;1.40;;;;;;;15.29;72.03;92601.91;1769081;78;21101;-90
2021/08/30 08:21:26;;;;;;;1.52;1.42;;;;;;;15.37;72.34;92594.20;1801348;77;21460;-89
2021/08/30 08:23:53;;;;;;;1.62;1.52;;;;;;;15.42;71.96;92594.41;1769350;79;21017;-92
2021/08/30 08:26:19;;;;;;;1.80;1.65;;;;;;;15.47;72.13;92597.94;1737332;80;21068;-91
2021/08/30 08:28:46;;;;;;;2.80;2.50;;;;;;;15.43;68.45;92598.67;1726208;81;21443;-89
2021/08/30 08:31:13;;;;;;;1.60;1.50;;;;;;;15.36;68.74;92600.30;1773023;77;21243;-90
2021/08/30 08:33:41;;;;;;;2.15;1.42;;;;;;;15.32;68.49;92602.39;1808548;77;21081;-90
2021/08/30 08:36:08;;;;;;;2.33;1.92;;;;;;;15.38;69.44;92598.47;1803137;77;21026;-87
2021/08/30 08:38:35;;;;;;;5.45;1.95;;;;;;;15.52;70.80;92602.08;1764395;80;21054;-88
2021/08/30 08:41:01;;;;;;;1.70;1.60;;;;;;;15.68;71.34;92603.88;1772847;78;21069;-89
2021/08/30 08:43:27;;;;;;;1.85;1.45;;;;;;;15.83;68.74;92598.03;1744953;80;21116;-90
2021/08/30 08:45:54;;;;;;;1.22;1.17;;;;;;;15.88;67.57;92599.45;1791648;77;21051;-89
2021/08/30 08:48:21;;;;;;;1.40;1.30;;;;;;;15.86;67.96;92597.14;1840694;77;20958;-90
2021/08/30 08:50:49;;;;;;;2.67;1.60;;;;;;;15.92;69.71;92591.25;1763622;78;21022;-90
2021/08/30 08:53:16;;;;;;;1.80;1.70;;;;;;;16.06;68.65;92594.66;1796759;77;21068;-91
2021/08/30 08:55:42;;;;;;;1.85;1.47;;;;;;;16.13;67.82;92592.41;1777977;77;21011;-88
2021/08/30 08:58:15;;;;;;;1.40;1.30;;;;;;;16.14;64.28;92593.20;1742150;80;21492;-91
2021/08/30 09:00:45;;;;;;;1.70;1.60;;;;;;;16.13;64.83;92592.41;1722639;82;21089;-91
2021/08/30 09:03:16;;;;;;;1.60;1.50;;;;;;;16.13;63.52;92595.76;1731599;82;21035;-90
2021/08/30 09:05:43;;;;;;;1.60;1.50;;;;;;;16.02;64.22;92586.56;1779139;78;21016;-91
2021/08/30 09:08:35;;;;;;;3.08;1.72;;;;;;;15.86;64.37;92591.66;1752784;78;21073;-90
2021/08/30 09:11:02;;;;;;;1.67;1.32;;;;;;;15.72;64.71;92594.34;1727961;81;21527;-91
2021/08/30 09:13:30;;;;;;;1.40;1.30;;;;;;;15.62;68.44;92594.09;1750297;79;21055;-89
2021/08/30 09:16:00;;;;;;;1.17;1.07;;;;;;;15.71;68.83;92591.42;1731714;81;21584;-88
2021/08/30 09:18:30;;;;;;;1.65;1.55;;;;;;;15.88;70.11;92593.97;1773009;79;21069;-89
2021/08/30 09:21:00;;;;;;;1.95;1.85;;;;;;;15.99;69.24;92597.08;1747624;81;21661;-89
2021/08/30 09:23:28;;;;;;;1.65;1.55;;;;;;;16.07;69.29;92591.48;1750125;78;20970;-89
2021/08/30 09:26:00;;;;;;;1.45;1.35;;;;;;;16.05;68.42;92594.50;1749632;80;21085;-90
2021/08/30 09:28:33;;;;;;;1.98;1.77;;;;;;;15.89;67.42;92616.05;1757010;79;21069;-86
2021/08/30 09:31:02;;;;;;;2.20;2.00;;;;;;;15.57;68.61;92608.95;1793747;77;21084;-86
2021/08/30 09:33:28;;;;;;;2.60;2.40;;;;;;;15.26;70.17;92623.33;1755254;78;21349;-88
2021/08/30 09:35:59;;;;;;;1.67;1.57;;;;;;;14.99;71.11;92616.41;1838792;77;21074;-88
2021/08/30 09:38:27;;;;;;;2.08;1.98;;;;;;;14.83;72.31;92615.20;1804268;77;21022;-88
2021/08/30 09:41:10;;;;;;;2.35;2.10;;;;;;;14.82;72.71;92613.67;1774565;78;21963;-90
2021/08/30 09:43:37;;;;;;;1.52;1.42;;;;;;;14.86;73.98;92615.69;1731367;80;21047;-86
2021/08/30 09:46:05;;;;;;;2.98;2.02;;;;;;;14.92;72.19;92619.38;1777479;77;21602;-88
2021/08/30 09:48:34;;;;;;;1.65;1.55;;;;;;;14.90;72.55;92617.70;1772670;80;21096;-86
2021/08/30 09:51:04;;;;;;;2.20;2.00;;;;;;;14.85;71.95;92622.95;1808092;77;21010;-88
2021/08/30 09:53:34;;;;;;;2.42;1.40;;;;;;;14.75;72.35;92620.14;1756382;77;21113;-89
2021/08/30 09:56:00;;;;;;;2.72;2.52;;;;;;;14.72;72.92;92631.20;1819151;76;21432;-89
2021/08/30 09:58:27;;;;;;;3.50;2.45;;;;;;;14.69;73.28;92625.23;1822489;75;21149;-88
2021/08/30 10:00:59;;;;;;;3.20;2.80;;;;;;;14.66;73.28;92620.63;1804042;77;21084;-89
2021/08/30 10:03:38;;;;;;;2.67;2.47;;;;;;;14.67;73.96;92624.89;1815074;77;20990;-92
2021/08/30 10:05:59;;;;;;;3.42;1.82;;;;;;;14.70;74.05;92628.88;1757872;79;21156;-89
2021/08/30 10:08:29;;;;;;;1.75;1.65;;;;;;;14.74;74.20;92631.51;1806959;77;21026;-89
2021/08/30 10:10:58;;;;;;;1.50;1.40;;;;;;;14.75;72.00;92641.27;1788413;77;21002;-88
2021/08/30 10:13:24;;;;;;;1.12;1.12;;;;;;;14.74;71.77;92645.98;1789864;79;21093;-89
2021/08/30 10:15:53;;;;;;;0.90;0.90;;;;;;;14.68;71.06;92643.63;1814685;77;21078;-90
2021/08/30 10:18:22;;;;;;;1.00;1.00;;;;;;;14.63;71.49;92643.39;1764166;79;20992;-90
2021/08/30 10:20:54;;;;;;;1.35;1.20;;;;;;;14.58;70.84;92649.58;1769623;79;20876;-91
2021/08/30 10:23:19;;;;;;;2.42;1.17;;;;;;;14.50;71.40;92646.91;1811978;77;21029;-89
2021/08/30 10:26:00;;;;;;;1.57;1.47;;;;;;;14.45;72.35;92654.28;1835445;76;21067;-88
2021/08/30 10:28:44;;;;;;;2.05;1.25;;;;;;;14.42;71.98;92651.05;1792646;76;21032;-88
2021/08/30 10:31:22;;;;;;;0.80;0.80;;;;;;;14.37;71.72;92659.81;1743425;78;21135;-90
2021/08/30 10:33:51;;;;;;;0.85;0.85;;;;;;;14.34;71.69;92666.14;1824749;77;20987;-90
2021/08/30 10:36:20;;;;;;;1.22;1.12;;;;;;;14.31;71.07;92657.44;1734780;80;21214;-91
2021/08/30 10:39:01;;;;;;;1.37;1.05;;;;;;;14.34;72.18;92657.94;1733768;81;21015;-87
2021/08/30 10:41:35;;;;;;;1.55;1.45;;;;;;;14.46;72.83;92655.80;1777784;78;21021;-87
2021/08/30 10:44:12;;;;;;;1.20;1.02;;;;;;;14.62;72.53;92647.34;1761637;78;21032;-87
2021/08/30 10:46:47;;;;;;;1.27;1.00;;;;;;;14.76;73.23;92642.80;1732944;81;21067;-87
2021/08/30 10:49:20;;;;;;;1.40;1.20;;;;;;;14.84;70.89;92641.34;1725296;80;21178;-88
2021/08/30 10:51:48;;;;;;;1.55;1.45;;;;;;;14.81;69.96;92642.22;1758100;79;21034;-87
2021/08/30 10:54:19;;;;;;;0.82;0.82;;;;;;;14.83;70.65;92628.12;1784987;78;21758;-91
2021/08/30 10:56:55;;;;;;;2.40;1.15;;;;;;;14.86;71.33;92631.34;1769892;77;21053;-89
2021/08/30 10:59:24;;;;;;;1.00;1.00;;;;;;;14.93;70.56;92647.52;1807417;75;21640;-89
2021/08/30 11:01:56;;;;;;;0.80;0.80;;;;;;;14.97;69.85;92646.21;1807930;76;21084;-88
2021/08/30 11:04:32;;;;;;;1.00;0.93;;;;;;;15.00;69.58;92629.48;1723942;78;21138;-88
2021/08/30 11:07:00;;;;;;;1.52;0.93;;;;;;;15.03;70.38;92629.38;1778054;78;21041;-91
2021/08/30 11:09:26;;;;;;;1.40;0.95;;;;;;;15.03;68.85;92640.92;1781116;77;21070;-89
2021/08/30 11:11:53;;;;;;;2.15;1.00;;;;;;;15.01;68.96;92666.02;1781067;77;21085;-90
2021/08/30 11:14:20;;;;;;;0.95;0.93;;;;;;;14.96;68.38;92652.87;1803728;76;21097;-90
2021/08/30 11:16:56;;;;;;;1.52;1.00;;;;;;;14.95;69.70;92663.66;1823010;75;21049;-89
2021/08/30 11:19:24;;;;;;;2.87;1.52;;;;;;;14.94;70.22;92667.62;1792137;77;21046;-89
2021/08/30 11:21:58;;;;;;;1.17;1.07;;;;;;;14.95;70.73;92660.16;1828228;76;20954;-91
2021/08/30 11:24:34;;;;;;;1.17;1.07;;;;;;;14.97;69.62;92644.05;1738933;76;21085;-91
2021/08/30 11:27:10;;;;;;;1.30;0.82;;;;;;;14.97;70.03;92654.42;1726946;80;21147;-92
2021/08/30 11:29:51;;;;;;;1.10;1.00;;;;;;;14.94;69.44;92651.20;1760127;79;21045;-90
2021/08/30 11:32:20;;;;;;;1.20;1.10;;;;;;;14.88;70.30;92652.95;1725676;80;21042;-88
2021/08/30 11:34:47;;;;;;;0.80;0.80;;;;;;;14.84;70.62;92659.75;1726166;80;21089;-89
2021/08/30 11:37:21;;;;;;;0.90;0.90;;;;;;;14.84;71.14;92652.91;1728996;79;20979;-91
2021/08/30 11:39:53;;;;;;;1.47;1.37;;;;;;;14.89;70.48;92640.78;1807417;77;20971;-90
2021/08/30 11:42:33;;;;;;;2.25;0.88;;;;;;;14.97;71.09;92648.16;1820576;77;21060;-90
2021/08/30 11:44:59;;;;;;;1.27;1.17;;;;;;;15.05;69.92;92642.63;1817956;77;21053;-90
2021/08/30 11:47:27;;;;;;;1.25;1.10;;;;;;;15.16;69.97;92640.30;1816213;76;20938;-92
2021/08/30 11:53:02;;;;;;;0.95;0.93;;;;;;;15.41;68.59;92636.69;1778313;78;21761;-91
2021/08/30 11:55:31;;;;;;;2.85;1.17;;;;;;;15.52;68.08;92637.08;1832978;76;20963;-89
2021/08/30 11:58:02;;;;;;;1.00;1.00;;;;;;;15.70;68.70;92635.12;1793526;76;21099;-89
2021/08/30 12:00:31;;;;;;;1.17;1.00;;;;;;;15.81;65.21;92632.61;1796475;77;21187;-90